sensor_id;sensor_type;location;lat;lon;timestamp;pressure;altitude;pressure_sealevel;temperature;humidity
73105;BME280;61296;50.526;30.792;2022-07-29T00:10:29;100000.88;;;19.86;46.76
73105;BME280;61296;50.526;30.792;2022-07-29T00:25:48;99957.09;;;19.36;47.12
73105;BME280;61296;50.526;30.792;2022-07-29T00:41:07;99939.59;;;19.36;46.77
73105;BME280;61296;50.526;30.792;2022-07-29T00:56:30;99977.91;;;19.78;46.36
73105;BME280;61296;50.526;30.792;2022-07-29T01:11:49;99920.44;;;19.14;46.71
73105;BME280;61296;50.526;30.792;2022-07-29T01:27:18;99987.59;;;19.47;47.13
73105;BME280;61296;50.526;30.792;2022-07-29T01:42:49;99936.09;;;18.81;48.36
73105;BME280;61296;50.526;30.792;2022-07-29T01:58:11;99924.41;;;18.63;49.10
73105;BME280;61296;50.526;30.792;2022-07-29T02:13:31;99922.75;;;18.38;51.18
73105;BME280;61296;50.526;30.792;2022-07-29T02:28:55;100010.44;;;18.23;53.78
73105;BME280;61296;50.526;30.792;2022-07-29T02:44:18;99999.69;;;17.91;54.83
73105;BME280;61296;50.526;30.792;2022-07-29T02:59:40;100012.19;;;18.10;54.10
73105;BME280;61296;50.526;30.792;2022-07-29T03:15:01;99907.56;;;17.44;54.94
73105;BME280;61296;50.526;30.792;2022-07-29T03:30:21;100018.59;;;19.02;50.76
73105;BME280;61296;50.526;30.792;2022-07-29T03:45:42;100026.41;;;20.28;49.69
73105;BME280;61296;50.526;30.792;2022-07-29T04:01:03;100032.88;;;21.00;46.91
73105;BME280;61296;50.526;30.792;2022-07-29T04:16:23;100039.09;;;20.72;48.98
73105;BME280;61296;50.526;30.792;2022-07-29T04:31:42;100016.72;;;21.08;49.68
73105;BME280;61296;50.526;30.792;2022-07-29T04:47:02;100007.13;;;22.03;42.54
73105;BME280;61296;50.526;30.792;2022-07-29T05:02:21;99964.03;;;22.42;41.14
73105;BME280;61296;50.526;30.792;2022-07-29T05:17:40;99990.31;;;23.12;41.05
73105;BME280;61296;50.526;30.792;2022-07-29T05:33:00;100040.81;;;24.32;40.44
73105;BME280;61296;50.526;30.792;2022-07-29T05:48:19;100001.31;;;24.58;37.34
73105;BME280;61296;50.526;30.792;2022-07-29T06:03:40;99983.34;;;24.33;38.16
73105;BME280;61296;50.526;30.792;2022-07-29T06:19:00;100058.31;;;25.51;36.74
73105;BME280;61296;50.526;30.792;2022-07-29T06:34:19;100044.16;;;25.82;36.07
73105;BME280;61296;50.526;30.792;2022-07-29T06:49:39;100041.69;;;25.75;35.33
73105;BME280;61296;50.526;30.792;2022-07-29T07:04:58;99976.81;;;25.48;33.99
73105;BME280;61296;50.526;30.792;2022-07-29T07:20:17;100008.91;;;25.59;35.24
73105;BME280;61296;50.526;30.792;2022-07-29T07:35:37;100065.19;;;26.45;33.58
73105;BME280;61296;50.526;30.792;2022-07-29T07:50:56;100057.19;;;25.98;34.83
73105;BME280;61296;50.526;30.792;2022-07-29T08:06:18;99993.16;;;25.99;34.43
73105;BME280;61296;50.526;30.792;2022-07-29T08:21:45;100040.09;;;26.57;33.91
73105;BME280;61296;50.526;30.792;2022-07-29T08:54:30;99924.28;;;25.54;34.77
73105;BME280;61296;50.526;30.792;2022-07-29T09:10:45;99937.31;;;25.11;35.46
73105;BME280;61296;50.526;30.792;2022-07-29T09:26:20;99917.03;;;25.53;34.77
73105;BME280;61296;50.526;30.792;2022-07-29T09:58:20;100031.00;;;26.62;34.55
73105;BME280;61296;50.526;30.792;2022-07-29T10:13:40;99992.16;;;26.57;34.11
73105;BME280;61296;50.526;30.792;2022-07-29T10:29:00;99960.59;;;26.76;34.05
73105;BME280;61296;50.526;30.792;2022-07-29T10:44:21;100005.91;;;27.15;33.71
73105;BME280;61296;50.526;30.792;2022-07-29T10:59:47;99949.38;;;27.00;33.18
73105;BME280;61296;50.526;30.792;2022-07-29T11:15:08;100009.25;;;27.61;33.40
73105;BME280;61296;50.526;30.792;2022-07-29T11:30:48;99937.22;;;27.42;33.28
73105;BME280;61296;50.526;30.792;2022-07-29T11:46:09;99943.53;;;26.71;34.60
73105;BME280;61296;50.526;30.792;2022-07-29T12:01:29;99961.88;;;26.66;34.76
73105;BME280;61296;50.526;30.792;2022-07-29T12:16:48;99962.66;;;26.67;34.91
73105;BME280;61296;50.526;30.792;2022-07-29T12:32:08;99938.34;;;26.79;35.55
73105;BME280;61296;50.526;30.792;2022-07-29T12:47:28;99930.53;;;26.97;34.64
73105;BME280;61296;50.526;30.792;2022-07-29T13:02:55;99950.16;;;26.59;36.65
73105;BME280;61296;50.526;30.792;2022-07-29T13:18:31;99895.69;;;26.34;36.06
73105;BME280;61296;50.526;30.792;2022-07-29T13:33:50;99941.78;;;26.73;35.97
73105;BME280;61296;50.526;30.792;2022-07-29T13:49:10;99959.19;;;26.72;36.40
73105;BME280;61296;50.526;30.792;2022-07-29T14:04:30;99913.03;;;26.60;35.77
73105;BME280;61296;50.526;30.792;2022-07-29T14:19:49;99946.22;;;26.65;36.76
73105;BME280;61296;50.526;30.792;2022-07-29T14:35:08;99893.66;;;26.26;36.53
73105;BME280;61296;50.526;30.792;2022-07-29T14:50:28;99837.66;;;26.09;35.89
73105;BME280;61296;50.526;30.792;2022-07-29T15:05:48;99899.50;;;26.64;36.09
73105;BME280;61296;50.526;30.792;2022-07-29T15:21:07;99812.63;;;26.02;36.39
73105;BME280;61296;50.526;30.792;2022-07-29T15:36:27;99858.41;;;26.39;36.33
73105;BME280;61296;50.526;30.792;2022-07-29T15:51:47;99897.88;;;26.82;35.98
73105;BME280;61296;50.526;30.792;2022-07-29T16:07:06;99897.66;;;26.61;37.21
73105;BME280;61296;50.526;30.792;2022-07-29T16:22:25;99896.66;;;26.22;39.29
73105;BME280;61296;50.526;30.792;2022-07-29T16:37:46;99820.09;;;25.26;41.29
73105;BME280;61296;50.526;30.792;2022-07-29T16:53:05;99891.72;;;25.44;42.04
73105;BME280;61296;50.526;30.792;2022-07-29T17:08:26;99875.25;;;25.06;42.73
73105;BME280;61296;50.526;30.792;2022-07-29T17:23:46;99876.09;;;24.75;43.75
73105;BME280;61296;50.526;30.792;2022-07-29T17:39:07;99906.03;;;24.60;44.44
73105;BME280;61296;50.526;30.792;2022-07-29T17:54:29;99912.69;;;24.22;46.30
73105;BME280;61296;50.526;30.792;2022-07-29T18:09:48;99915.19;;;23.98;45.68
73105;BME280;61296;50.526;30.792;2022-07-29T18:25:17;99886.91;;;23.71;46.68
73105;BME280;61296;50.526;30.792;2022-07-29T18:41:05;99820.94;;;22.97;47.46
73105;BME280;61296;50.526;30.792;2022-07-29T19:12:38;99810.00;;;22.52;50.45
73105;BME280;61296;50.526;30.792;2022-07-29T19:27:59;99812.34;;;22.28;51.53
73105;BME280;61296;50.526;30.792;2022-07-29T19:43:21;99814.84;;;22.13;53.07
73105;BME280;61296;50.526;30.792;2022-07-29T19:58:41;99796.84;;;21.98;53.48
73105;BME280;61296;50.526;30.792;2022-07-29T20:14:02;99886.22;;;22.34;54.34
73105;BME280;61296;50.526;30.792;2022-07-29T20:29:23;99782.44;;;21.45;55.66
73105;BME280;61296;50.526;30.792;2022-07-29T20:44:46;99780.81;;;21.31;56.68
73105;BME280;61296;50.526;30.792;2022-07-29T21:00:13;99771.91;;;20.91;58.32
73105;BME280;61296;50.526;30.792;2022-07-29T21:15:35;99801.25;;;20.99;58.68
73105;BME280;61296;50.526;30.792;2022-07-29T21:30:59;99893.50;;;21.31;58.86
73105;BME280;61296;50.526;30.792;2022-07-29T21:46:19;99795.59;;;20.86;58.29
73105;BME280;61296;50.526;30.792;2022-07-29T22:01:39;99851.09;;;21.33;57.60
73105;BME280;61296;50.526;30.792;2022-07-29T22:16:59;99868.97;;;21.52;56.92
73105;BME280;61296;50.526;30.792;2022-07-29T22:32:18;99845.84;;;21.35;56.04
73105;BME280;61296;50.526;30.792;2022-07-29T22:47:38;99834.31;;;21.33;55.96
73105;BME280;61296;50.526;30.792;2022-07-29T23:02:57;99957.91;;;21.89;56.35
73105;BME280;61296;50.526;30.792;2022-07-29T23:18:17;99856.63;;;21.04;58.19
73105;BME280;61296;50.526;30.792;2022-07-29T23:33:36;99930.09;;;21.53;59.23
73105;BME280;61296;50.526;30.792;2022-07-29T23:48:56;99783.47;;;20.44;59.57
